sensor_id;sensor_type;location;lat;lon;timestamp;pressure;altitude;pressure_sealevel;temperature;humidity
52651;BME280;38537;47.226;39.702;2023-05-23T00:01:38;100257.72;;;17.18;86.92
52651;BME280;38537;47.226;39.702;2023-05-23T00:04:06;100251.63;;;17.03;87.14
52651;BME280;38537;47.226;39.702;2023-05-23T00:06:33;100266.69;;;17.07;87.24
52651;BME280;38537;47.226;39.702;2023-05-23T00:09:03;100255.16;;;17.00;87.57
52651;BME280;38537;47.226;39.702;2023-05-23T00:11:30;100266.88;;;17.14;87.46
52651;BME280;38537;47.226;39.702;2023-05-23T00:13:58;100261.72;;;17.17;87.47
52651;BME280;38537;47.226;39.702;2023-05-23T00:16:29;100256.06;;;17.29;86.99
52651;BME280;38537;47.226;39.702;2023-05-23T00:18:56;100257.72;;;17.30;86.71
52651;BME280;38537;47.226;39.702;2023-05-23T00:21:25;100270.97;;;17.41;86.56
52651;BME280;38537;47.226;39.702;2023-05-23T00:23:53;100254.41;;;17.28;86.29
52651;BME280;38537;47.226;39.702;2023-05-23T00:26:20;100259.50;;;17.10;86.28
52651;BME280;38537;47.226;39.702;2023-05-23T00:28:48;100278.41;;;17.22;86.82
52651;BME280;38537;47.226;39.702;2023-05-23T00:31:15;100274.88;;;17.12;87.06
52651;BME280;38537;47.226;39.702;2023-05-23T00:33:43;100266.91;;;17.02;87.03
52651;BME280;38537;47.226;39.702;2023-05-23T00:36:11;100263.63;;;17.00;87.49
52651;BME280;38537;47.226;39.702;2023-05-23T00:38:42;100258.22;;;16.95;87.26
52651;BME280;38537;47.226;39.702;2023-05-23T00:41:13;100251.28;;;16.93;87.57
52651;BME280;38537;47.226;39.702;2023-05-23T00:43:41;100266.44;;;17.00;87.81
52651;BME280;38537;47.226;39.702;2023-05-23T00:46:09;100273.00;;;16.92;88.15
52651;BME280;38537;47.226;39.702;2023-05-23T00:48:37;100249.41;;;16.72;88.32
52651;BME280;38537;47.226;39.702;2023-05-23T00:51:06;100264.09;;;16.78;88.64
52651;BME280;38537;47.226;39.702;2023-05-23T00:53:34;100261.97;;;16.75;88.83
52651;BME280;38537;47.226;39.702;2023-05-23T00:56:02;100265.41;;;16.81;89.05
52651;BME280;38537;47.226;39.702;2023-05-23T00:58:29;100258.00;;;16.76;89.04
52651;BME280;38537;47.226;39.702;2023-05-23T01:00:58;100252.34;;;16.76;88.96
52651;BME280;38537;47.226;39.702;2023-05-23T01:03:25;100252.13;;;16.81;88.79
52651;BME280;38537;47.226;39.702;2023-05-23T01:05:55;100247.41;;;16.85;88.56
52651;BME280;38537;47.226;39.702;2023-05-23T01:08:22;100267.50;;;16.96;88.16
52651;BME280;38537;47.226;39.702;2023-05-23T01:10:50;100265.03;;;16.94;88.12
52651;BME280;38537;47.226;39.702;2023-05-23T01:13:41;100284.75;;;17.19;88.45
52651;BME280;38537;47.226;39.702;2023-05-23T01:16:33;100274.31;;;17.07;88.11
52651;BME280;38537;47.226;39.702;2023-05-23T01:21:52;100288.88;;;16.97;87.84
52651;BME280;38537;47.226;39.702;2023-05-23T01:24:39;100288.16;;;17.12;87.88
52651;BME280;38537;47.226;39.702;2023-05-23T01:27:35;100295.69;;;17.20;87.72
52651;BME280;38537;47.226;39.702;2023-05-23T01:30:05;100288.50;;;17.23;86.58
52651;BME280;38537;47.226;39.702;2023-05-23T01:32:36;100273.47;;;17.31;85.92
52651;BME280;38537;47.226;39.702;2023-05-23T01:35:04;100282.28;;;17.29;86.00
52651;BME280;38537;47.226;39.702;2023-05-23T01:37:32;100265.81;;;17.19;85.39
52651;BME280;38537;47.226;39.702;2023-05-23T01:39:59;100289.53;;;17.42;85.60
52651;BME280;38537;47.226;39.702;2023-05-23T01:42:29;100287.88;;;17.41;85.38
52651;BME280;38537;47.226;39.702;2023-05-23T01:44:57;100280.81;;;17.47;84.91
52651;BME280;38537;47.226;39.702;2023-05-23T01:47:25;100299.00;;;17.62;84.66
52651;BME280;38537;47.226;39.702;2023-05-23T01:49:53;100289.59;;;17.58;84.30
52651;BME280;38537;47.226;39.702;2023-05-23T01:52:22;100286.66;;;17.55;84.11
52651;BME280;38537;47.226;39.702;2023-05-23T01:54:50;100294.47;;;17.45;84.36
52651;BME280;38537;47.226;39.702;2023-05-23T01:57:18;100297.88;;;17.51;84.15
52651;BME280;38537;47.226;39.702;2023-05-23T01:59:46;100294.38;;;17.42;84.39
52651;BME280;38537;47.226;39.702;2023-05-23T02:02:14;100310.34;;;17.50;84.41
52651;BME280;38537;47.226;39.702;2023-05-23T02:04:41;100298.78;;;17.55;83.84
52651;BME280;38537;47.226;39.702;2023-05-23T02:07:09;100308.66;;;17.61;83.70
52651;BME280;38537;47.226;39.702;2023-05-23T02:09:37;100293.25;;;17.59;83.72
52651;BME280;38537;47.226;39.702;2023-05-23T02:12:04;100287.25;;;17.60;83.31
52651;BME280;38537;47.226;39.702;2023-05-23T02:14:32;100310.88;;;17.80;82.83
52651;BME280;38537;47.226;39.702;2023-05-23T02:16:59;100307.69;;;17.81;82.60
52651;BME280;38537;47.226;39.702;2023-05-23T02:19:27;100310.03;;;17.92;82.03
52651;BME280;38537;47.226;39.702;2023-05-23T02:21:55;100308.25;;;17.87;82.07
52651;BME280;38537;47.226;39.702;2023-05-23T02:24:23;100306.25;;;17.88;81.51
52651;BME280;38537;47.226;39.702;2023-05-23T02:26:51;100306.13;;;17.96;81.02
52651;BME280;38537;47.226;39.702;2023-05-23T02:29:19;100327.84;;;18.08;80.95
52651;BME280;38537;47.226;39.702;2023-05-23T02:31:47;100276.72;;;17.85;80.74
52651;BME280;38537;47.226;39.702;2023-05-23T02:34:15;100325.94;;;18.12;81.18
52651;BME280;38537;47.226;39.702;2023-05-23T02:36:43;100307.13;;;18.04;81.11
52651;BME280;38537;47.226;39.702;2023-05-23T02:39:10;100306.31;;;18.03;81.25
52651;BME280;38537;47.226;39.702;2023-05-23T02:41:38;100315.81;;;18.11;80.84
52651;BME280;38537;47.226;39.702;2023-05-23T02:44:06;100315.34;;;18.09;80.94
52651;BME280;38537;47.226;39.702;2023-05-23T02:46:33;100323.69;;;18.18;80.96
52651;BME280;38537;47.226;39.702;2023-05-23T02:49:02;100315.75;;;18.23;80.25
52651;BME280;38537;47.226;39.702;2023-05-23T02:51:29;100313.47;;;18.13;80.55
52651;BME280;38537;47.226;39.702;2023-05-23T02:53:58;100305.22;;;18.08;80.89
52651;BME280;38537;47.226;39.702;2023-05-23T02:56:25;100304.47;;;17.95;81.09
52651;BME280;38537;47.226;39.702;2023-05-23T02:58:53;100314.59;;;17.96;81.51
52651;BME280;38537;47.226;39.702;2023-05-23T03:01:21;100305.56;;;17.78;81.79
52651;BME280;38537;47.226;39.702;2023-05-23T03:03:49;100315.50;;;17.72;82.26
52651;BME280;38537;47.226;39.702;2023-05-23T03:06:17;100303.03;;;17.73;82.32
52651;BME280;38537;47.226;39.702;2023-05-23T03:08:45;100302.34;;;17.64;82.35
52651;BME280;38537;47.226;39.702;2023-05-23T03:11:12;100303.84;;;17.62;82.84
52651;BME280;38537;47.226;39.702;2023-05-23T03:13:44;100306.72;;;17.50;83.31
52651;BME280;38537;47.226;39.702;2023-05-23T03:16:11;100294.13;;;17.47;83.48
52651;BME280;38537;47.226;39.702;2023-05-23T03:18:39;100302.81;;;17.42;83.65
52651;BME280;38537;47.226;39.702;2023-05-23T03:21:08;100279.66;;;17.36;83.72
52651;BME280;38537;47.226;39.702;2023-05-23T03:23:35;100292.22;;;17.51;83.53
52651;BME280;38537;47.226;39.702;2023-05-23T03:26:04;100292.78;;;17.57;83.15
52651;BME280;38537;47.226;39.702;2023-05-23T03:28:34;100284.66;;;17.55;83.13
52651;BME280;38537;47.226;39.702;2023-05-23T03:31:03;100291.59;;;17.58;83.01
52651;BME280;38537;47.226;39.702;2023-05-23T03:33:33;100301.84;;;17.62;83.19
52651;BME280;38537;47.226;39.702;2023-05-23T03:36:05;100298.66;;;17.64;83.02
52651;BME280;38537;47.226;39.702;2023-05-23T03:38:33;100286.44;;;17.72;82.36
52651;BME280;38537;47.226;39.702;2023-05-23T03:41:01;100288.38;;;17.84;81.82
52651;BME280;38537;47.226;39.702;2023-05-23T03:43:28;100289.31;;;17.88;82.14
52651;BME280;38537;47.226;39.702;2023-05-23T03:45:56;100280.94;;;17.91;81.52
52651;BME280;38537;47.226;39.702;2023-05-23T03:48:26;100281.53;;;17.97;80.91
52651;BME280;38537;47.226;39.702;2023-05-23T03:50:53;100298.50;;;18.12;80.86
52651;BME280;38537;47.226;39.702;2023-05-23T03:53:21;100275.66;;;17.90;80.54
52651;BME280;38537;47.226;39.702;2023-05-23T03:55:48;100286.28;;;17.80;81.04
52651;BME280;38537;47.226;39.702;2023-05-23T03:58:16;100281.69;;;17.76;81.23
52651;BME280;38537;47.226;39.702;2023-05-23T04:00:47;100285.56;;;17.84;81.29
52651;BME280;38537;47.226;39.702;2023-05-23T04:03:15;100285.19;;;17.85;81.01
52651;BME280;38537;47.226;39.702;2023-05-23T04:05:44;100298.66;;;18.04;80.79
52651;BME280;38537;47.226;39.702;2023-05-23T04:08:13;100288.50;;;18.15;80.49
52651;BME280;38537;47.226;39.702;2023-05-23T04:10:43;100282.97;;;18.06;80.46
52651;BME280;38537;47.226;39.702;2023-05-23T04:13:11;100287.78;;;18.18;79.88
52651;BME280;38537;47.226;39.702;2023-05-23T04:15:38;100287.13;;;18.25;79.75
52651;BME280;38537;47.226;39.702;2023-05-23T04:18:10;100300.56;;;18.43;79.31
52651;BME280;38537;47.226;39.702;2023-05-23T04:20:37;100291.06;;;18.36;79.15
52651;BME280;38537;47.226;39.702;2023-05-23T04:23:05;100255.75;;;18.14;79.44
52651;BME280;38537;47.226;39.702;2023-05-23T04:25:35;100301.38;;;18.44;79.22
52651;BME280;38537;47.226;39.702;2023-05-23T04:28:10;100292.47;;;18.58;78.73
52651;BME280;38537;47.226;39.702;2023-05-23T04:30:38;100294.00;;;18.55;78.29
52651;BME280;38537;47.226;39.702;2023-05-23T04:33:06;100300.25;;;18.61;78.39
52651;BME280;38537;47.226;39.702;2023-05-23T04:35:34;100278.94;;;18.51;78.43
52651;BME280;38537;47.226;39.702;2023-05-23T04:38:05;100270.56;;;18.55;77.99
52651;BME280;38537;47.226;39.702;2023-05-23T04:40:33;100287.31;;;18.60;77.89
52651;BME280;38537;47.226;39.702;2023-05-23T04:43:09;100249.13;;;18.54;77.78
52651;BME280;38537;47.226;39.702;2023-05-23T04:45:47;100281.91;;;18.70;77.52
52651;BME280;38537;47.226;39.702;2023-05-23T04:48:52;100296.25;;;18.77;77.60
52651;BME280;38537;47.226;39.702;2023-05-23T04:51:21;100282.91;;;18.78;77.46
52651;BME280;38537;47.226;39.702;2023-05-23T04:53:54;100285.91;;;18.85;77.28
52651;BME280;38537;47.226;39.702;2023-05-23T04:56:21;100294.03;;;19.02;76.56
52651;BME280;38537;47.226;39.702;2023-05-23T04:58:54;100302.31;;;19.11;76.52
52651;BME280;38537;47.226;39.702;2023-05-23T05:01:24;100298.47;;;19.19;76.01
52651;BME280;38537;47.226;39.702;2023-05-23T05:03:52;100307.16;;;19.10;76.01
52651;BME280;38537;47.226;39.702;2023-05-23T05:06:21;100295.56;;;19.15;76.04
52651;BME280;38537;47.226;39.702;2023-05-23T05:08:50;100291.13;;;19.34;75.10
52651;BME280;38537;47.226;39.702;2023-05-23T05:11:18;100312.22;;;19.52;74.51
52651;BME280;38537;47.226;39.702;2023-05-23T05:13:46;100290.47;;;19.56;73.65
52651;BME280;38537;47.226;39.702;2023-05-23T05:16:13;100304.78;;;19.63;73.66
52651;BME280;38537;47.226;39.702;2023-05-23T05:18:43;100312.84;;;19.80;73.19
52651;BME280;38537;47.226;39.702;2023-05-23T05:21:13;100320.25;;;19.85;72.76
52651;BME280;38537;47.226;39.702;2023-05-23T05:23:40;100301.22;;;19.85;72.42
52651;BME280;38537;47.226;39.702;2023-05-23T05:26:08;100323.09;;;20.04;71.97
52651;BME280;38537;47.226;39.702;2023-05-23T05:28:36;100301.31;;;20.08;71.65
52651;BME280;38537;47.226;39.702;2023-05-23T05:31:05;100299.78;;;20.14;71.07
52651;BME280;38537;47.226;39.702;2023-05-23T05:33:35;100313.81;;;20.27;70.75
52651;BME280;38537;47.226;39.702;2023-05-23T05:36:08;100305.53;;;20.18;71.01
52651;BME280;38537;47.226;39.702;2023-05-23T05:38:35;100269.75;;;19.91;71.21
52651;BME280;38537;47.226;39.702;2023-05-23T05:41:02;100296.75;;;20.04;71.34
52651;BME280;38537;47.226;39.702;2023-05-23T05:43:35;100269.16;;;20.01;71.07
52651;BME280;38537;47.226;39.702;2023-05-23T05:46:03;100297.41;;;20.16;71.08
52651;BME280;38537;47.226;39.702;2023-05-23T05:48:32;100279.28;;;20.02;71.32
52651;BME280;38537;47.226;39.702;2023-05-23T05:51:13;100283.75;;;20.03;71.40
52651;BME280;38537;47.226;39.702;2023-05-23T05:53:41;100255.97;;;19.89;71.62
52651;BME280;38537;47.226;39.702;2023-05-23T05:56:09;100278.31;;;19.94;72.00
52651;BME280;38537;47.226;39.702;2023-05-23T05:58:38;100280.31;;;19.94;71.86
52651;BME280;38537;47.226;39.702;2023-05-23T06:01:07;100267.50;;;19.80;71.99
52651;BME280;38537;47.226;39.702;2023-05-23T06:03:34;100265.88;;;19.60;72.28
52651;BME280;38537;47.226;39.702;2023-05-23T06:06:03;100282.06;;;19.79;72.12
52651;BME280;38537;47.226;39.702;2023-05-23T06:08:31;100258.56;;;19.78;72.01
52651;BME280;38537;47.226;39.702;2023-05-23T06:10:58;100258.13;;;19.76;71.74
52651;BME280;38537;47.226;39.702;2023-05-23T06:13:26;100248.13;;;19.82;71.65
52651;BME280;38537;47.226;39.702;2023-05-23T06:15:53;100248.66;;;19.88;71.69
52651;BME280;38537;47.226;39.702;2023-05-23T06:18:24;100258.69;;;20.05;71.55
52651;BME280;38537;47.226;39.702;2023-05-23T06:20:52;100246.09;;;20.02;71.19
52651;BME280;38537;47.226;39.702;2023-05-23T06:23:20;100264.25;;;20.20;71.25
52651;BME280;38537;47.226;39.702;2023-05-23T06:25:49;100250.72;;;20.10;71.16
52651;BME280;38537;47.226;39.702;2023-05-23T06:28:17;100244.59;;;20.08;71.16
52651;BME280;38537;47.226;39.702;2023-05-23T06:30:45;100229.75;;;19.96;70.70
52651;BME280;38537;47.226;39.702;2023-05-23T06:33:14;100231.84;;;19.99;70.76
52651;BME280;38537;47.226;39.702;2023-05-23T06:35:43;100234.31;;;20.00;71.46
52651;BME280;38537;47.226;39.702;2023-05-23T06:38:10;100259.78;;;20.19;70.81
52651;BME280;38537;47.226;39.702;2023-05-23T06:40:39;100239.81;;;20.12;70.82
52651;BME280;38537;47.226;39.702;2023-05-23T06:43:08;100243.16;;;20.18;70.41
52651;BME280;38537;47.226;39.702;2023-05-23T06:46:05;100226.25;;;20.02;70.61
52651;BME280;38537;47.226;39.702;2023-05-23T06:48:32;100234.09;;;20.09;70.56
52651;BME280;38537;47.226;39.702;2023-05-23T06:51:00;100225.63;;;19.90;70.75
52651;BME280;38537;47.226;39.702;2023-05-23T06:53:33;100228.59;;;19.77;70.65
52651;BME280;38537;47.226;39.702;2023-05-23T06:56:00;100217.56;;;19.53;70.77
52651;BME280;38537;47.226;39.702;2023-05-23T06:58:30;100214.41;;;19.39;71.20
52651;BME280;38537;47.226;39.702;2023-05-23T07:01:00;100238.41;;;19.45;71.85
52651;BME280;38537;47.226;39.702;2023-05-23T07:03:31;100223.47;;;19.29;71.95
52651;BME280;38537;47.226;39.702;2023-05-23T07:06:05;100225.47;;;19.28;72.00
52651;BME280;38537;47.226;39.702;2023-05-23T07:08:33;100224.59;;;19.24;72.00
52651;BME280;38537;47.226;39.702;2023-05-23T07:11:03;100244.31;;;19.21;72.25
52651;BME280;38537;47.226;39.702;2023-05-23T07:13:42;100230.03;;;18.98;72.83
52651;BME280;38537;47.226;39.702;2023-05-23T07:16:17;100247.22;;;19.05;73.27
52651;BME280;38537;47.226;39.702;2023-05-23T07:18:55;100241.78;;;19.15;73.12
52651;BME280;38537;47.226;39.702;2023-05-23T07:21:23;100230.03;;;19.33;72.40
52651;BME280;38537;47.226;39.702;2023-05-23T07:23:50;100255.41;;;19.45;72.04
52651;BME280;38537;47.226;39.702;2023-05-23T07:26:18;100245.44;;;19.51;72.30
52651;BME280;38537;47.226;39.702;2023-05-23T07:28:51;100233.59;;;19.65;71.67
52651;BME280;38537;47.226;39.702;2023-05-23T07:31:23;100260.19;;;19.99;71.17
52651;BME280;38537;47.226;39.702;2023-05-23T07:33:53;100246.25;;;20.09;70.34
52651;BME280;38537;47.226;39.702;2023-05-23T07:36:39;100234.84;;;20.29;69.74
52651;BME280;38537;47.226;39.702;2023-05-23T07:39:10;100265.53;;;20.65;69.06
52651;BME280;38537;47.226;39.702;2023-05-23T07:41:38;100241.56;;;20.63;68.69
52651;BME280;38537;47.226;39.702;2023-05-23T07:44:05;100245.53;;;20.58;68.79
52651;BME280;38537;47.226;39.702;2023-05-23T07:46:33;100235.34;;;20.53;68.82
52651;BME280;38537;47.226;39.702;2023-05-23T07:49:01;100244.47;;;20.66;68.61
52651;BME280;38537;47.226;39.702;2023-05-23T07:51:28;100248.50;;;20.65;68.79
52651;BME280;38537;47.226;39.702;2023-05-23T07:53:58;100248.06;;;20.63;68.86
52651;BME280;38537;47.226;39.702;2023-05-23T07:56:26;100241.13;;;20.61;68.92
52651;BME280;38537;47.226;39.702;2023-05-23T07:58:54;100261.78;;;20.61;68.69
52651;BME280;38537;47.226;39.702;2023-05-23T08:01:25;100264.31;;;20.43;68.82
52651;BME280;38537;47.226;39.702;2023-05-23T08:04:03;100252.09;;;20.39;69.15
52651;BME280;38537;47.226;39.702;2023-05-23T08:06:38;100247.75;;;20.45;68.92
52651;BME280;38537;47.226;39.702;2023-05-23T08:09:37;100234.91;;;20.51;68.65
52651;BME280;38537;47.226;39.702;2023-05-23T08:12:08;100260.50;;;20.78;68.14
52651;BME280;38537;47.226;39.702;2023-05-23T08:14:36;100224.22;;;20.68;67.80
52651;BME280;38537;47.226;39.702;2023-05-23T08:17:38;100231.69;;;20.79;67.56
52651;BME280;38537;47.226;39.702;2023-05-23T08:20:07;100238.31;;;20.87;67.64
52651;BME280;38537;47.226;39.702;2023-05-23T08:22:37;100228.59;;;20.88;67.61
52651;BME280;38537;47.226;39.702;2023-05-23T08:25:05;100227.09;;;20.94;67.48
52651;BME280;38537;47.226;39.702;2023-05-23T08:27:35;100224.84;;;21.07;67.03
52651;BME280;38537;47.226;39.702;2023-05-23T08:30:12;100212.34;;;21.11;66.96
52651;BME280;38537;47.226;39.702;2023-05-23T08:32:40;100208.19;;;21.05;66.52
52651;BME280;38537;47.226;39.702;2023-05-23T08:35:08;100218.38;;;20.83;66.95
52651;BME280;38537;47.226;39.702;2023-05-23T08:37:37;100201.66;;;20.52;67.80
52651;BME280;38537;47.226;39.702;2023-05-23T08:40:06;100205.38;;;20.33;68.54
52651;BME280;38537;47.226;39.702;2023-05-23T08:42:47;100222.00;;;20.35;68.87
52651;BME280;38537;47.226;39.702;2023-05-23T08:45:20;100209.88;;;20.15;69.27
52651;BME280;38537;47.226;39.702;2023-05-23T08:47:50;100194.50;;;20.16;69.24
52651;BME280;38537;47.226;39.702;2023-05-23T08:50:19;100210.59;;;20.31;69.52
52651;BME280;38537;47.226;39.702;2023-05-23T08:52:58;100199.56;;;20.26;68.41
52651;BME280;38537;47.226;39.702;2023-05-23T08:55:28;100199.91;;;20.44;68.60
52651;BME280;38537;47.226;39.702;2023-05-23T08:57:59;100204.88;;;20.50;67.63
52651;BME280;38537;47.226;39.702;2023-05-23T09:00:48;100189.28;;;20.18;67.29
52651;BME280;38537;47.226;39.702;2023-05-23T09:03:16;100181.84;;;20.10;67.84
52651;BME280;38537;47.226;39.702;2023-05-23T09:05:54;100187.34;;;20.22;68.03
52651;BME280;38537;47.226;39.702;2023-05-23T09:08:23;100180.91;;;20.02;68.12
52651;BME280;38537;47.226;39.702;2023-05-23T09:10:55;100166.72;;;20.02;68.60
52651;BME280;38537;47.226;39.702;2023-05-23T09:13:23;100169.78;;;19.94;68.65
52651;BME280;38537;47.226;39.702;2023-05-23T09:18:49;100187.53;;;20.10;69.54
52651;BME280;38537;47.226;39.702;2023-05-23T09:21:19;100180.53;;;20.04;68.67
52651;BME280;38537;47.226;39.702;2023-05-23T09:23:59;100171.56;;;20.02;68.92
52651;BME280;38537;47.226;39.702;2023-05-23T09:26:28;100172.59;;;20.13;68.80
52651;BME280;38537;47.226;39.702;2023-05-23T09:28:56;100164.66;;;20.22;68.50
52651;BME280;38537;47.226;39.702;2023-05-23T09:31:27;100176.19;;;20.33;68.10
52651;BME280;38537;47.226;39.702;2023-05-23T09:33:57;100180.56;;;20.49;67.94
52651;BME280;38537;47.226;39.702;2023-05-23T09:36:29;100194.16;;;20.63;67.17
52651;BME280;38537;47.226;39.702;2023-05-23T09:39:03;100182.28;;;20.58;67.15
52651;BME280;38537;47.226;39.702;2023-05-23T09:41:34;100186.13;;;20.69;67.54
52651;BME280;38537;47.226;39.702;2023-05-23T09:44:09;100194.22;;;20.67;67.01
52651;BME280;38537;47.226;39.702;2023-05-23T09:46:49;100193.97;;;20.79;66.92
52651;BME280;38537;47.226;39.702;2023-05-23T09:49:22;100190.81;;;20.84;66.64
52651;BME280;38537;47.226;39.702;2023-05-23T09:51:57;100208.50;;;21.00;65.73
52651;BME280;38537;47.226;39.702;2023-05-23T09:54:25;100191.16;;;21.05;65.63
52651;BME280;38537;47.226;39.702;2023-05-23T09:56:53;100194.47;;;21.11;65.23
52651;BME280;38537;47.226;39.702;2023-05-23T09:59:27;100197.31;;;21.11;65.07
52651;BME280;38537;47.226;39.702;2023-05-23T10:01:56;100210.00;;;21.17;64.90
52651;BME280;38537;47.226;39.702;2023-05-23T10:04:24;100187.88;;;21.03;65.06
52651;BME280;38537;47.226;39.702;2023-05-23T10:06:56;100198.63;;;21.17;64.81
52651;BME280;38537;47.226;39.702;2023-05-23T10:09:29;100207.00;;;21.33;64.20
52651;BME280;38537;47.226;39.702;2023-05-23T10:14:28;100214.44;;;21.44;63.64
52651;BME280;38537;47.226;39.702;2023-05-23T10:19:29;100213.88;;;21.62;63.78
52651;BME280;38537;47.226;39.702;2023-05-23T10:22:00;100214.84;;;21.76;63.54
52651;BME280;38537;47.226;39.702;2023-05-23T10:24:29;100206.06;;;21.88;63.49
52651;BME280;38537;47.226;39.702;2023-05-23T10:26:57;100195.75;;;22.07;63.93
52651;BME280;38537;47.226;39.702;2023-05-23T10:29:27;100185.28;;;22.18;63.19
52651;BME280;38537;47.226;39.702;2023-05-23T10:31:56;100200.13;;;22.41;63.21
52651;BME280;38537;47.226;39.702;2023-05-23T10:42:21;100196.88;;;22.87;61.68
52651;BME280;38537;47.226;39.702;2023-05-23T10:45:18;100194.13;;;23.01;62.35
52651;BME280;38537;47.226;39.702;2023-05-23T10:47:47;100204.41;;;23.16;61.85
52651;BME280;38537;47.226;39.702;2023-05-23T10:50:35;100207.78;;;23.33;61.42
52651;BME280;38537;47.226;39.702;2023-05-23T10:53:04;100201.66;;;23.31;60.88
52651;BME280;38537;47.226;39.702;2023-05-23T10:55:34;100195.56;;;23.36;60.78
52651;BME280;38537;47.226;39.702;2023-05-23T10:58:14;100211.56;;;23.54;60.38
52651;BME280;38537;47.226;39.702;2023-05-23T11:00:52;100202.22;;;23.57;60.11
52651;BME280;38537;47.226;39.702;2023-05-23T11:03:35;100199.00;;;23.66;60.43
52651;BME280;38537;47.226;39.702;2023-05-23T11:06:05;100185.53;;;23.60;59.91
52651;BME280;38537;47.226;39.702;2023-05-23T11:08:39;100207.41;;;23.45;58.23
52651;BME280;38537;47.226;39.702;2023-05-23T11:11:15;100203.91;;;23.04;59.43
52651;BME280;38537;47.226;39.702;2023-05-23T11:13:58;100178.88;;;22.76;59.56
52651;BME280;38537;47.226;39.702;2023-05-23T11:16:30;100198.50;;;22.84;60.25
52651;BME280;38537;47.226;39.702;2023-05-23T11:21:47;100164.19;;;22.74;60.00
52651;BME280;38537;47.226;39.702;2023-05-23T11:24:15;100180.69;;;22.95;59.95
52651;BME280;38537;47.226;39.702;2023-05-23T11:26:58;100182.31;;;22.99;59.66
52651;BME280;38537;47.226;39.702;2023-05-23T11:29:32;100180.72;;;23.02;59.04
52651;BME280;38537;47.226;39.702;2023-05-23T11:31:59;100197.47;;;23.10;59.01
52651;BME280;38537;47.226;39.702;2023-05-23T11:34:26;100195.94;;;23.31;60.52
52651;BME280;38537;47.226;39.702;2023-05-23T11:36:54;100193.53;;;23.36;58.52
52651;BME280;38537;47.226;39.702;2023-05-23T11:39:23;100180.09;;;23.40;58.18
52651;BME280;38537;47.226;39.702;2023-05-23T11:42:01;100181.31;;;23.39;57.52
52651;BME280;38537;47.226;39.702;2023-05-23T11:44:29;100189.88;;;23.43;58.16
52651;BME280;38537;47.226;39.702;2023-05-23T11:46:58;100199.41;;;23.68;58.84
52651;BME280;38537;47.226;39.702;2023-05-23T11:49:30;100206.81;;;23.87;58.46
52651;BME280;38537;47.226;39.702;2023-05-23T11:51:58;100200.28;;;23.90;58.50
52651;BME280;38537;47.226;39.702;2023-05-23T11:54:29;100195.03;;;23.96;58.12
52651;BME280;38537;47.226;39.702;2023-05-23T11:56:57;100214.63;;;24.15;57.64
52651;BME280;38537;47.226;39.702;2023-05-23T11:59:25;100198.75;;;24.17;58.11
52651;BME280;38537;47.226;39.702;2023-05-23T12:01:53;100211.84;;;24.40;58.22
52651;BME280;38537;47.226;39.702;2023-05-23T12:04:21;100191.88;;;24.43;57.24
52651;BME280;38537;47.226;39.702;2023-05-23T12:06:50;100187.38;;;24.35;56.51
52651;BME280;38537;47.226;39.702;2023-05-23T12:09:19;100202.91;;;24.45;56.15
52651;BME280;38537;47.226;39.702;2023-05-23T12:11:48;100196.75;;;24.39;56.09
52651;BME280;38537;47.226;39.702;2023-05-23T12:14:16;100192.69;;;24.37;56.32
52651;BME280;38537;47.226;39.702;2023-05-23T12:16:44;100205.34;;;24.39;56.33
52651;BME280;38537;47.226;39.702;2023-05-23T12:19:15;100202.88;;;24.48;56.90
52651;BME280;38537;47.226;39.702;2023-05-23T12:21:47;100205.75;;;24.55;57.50
52651;BME280;38537;47.226;39.702;2023-05-23T12:24:17;100189.00;;;24.47;56.37
52651;BME280;38537;47.226;39.702;2023-05-23T12:29:31;100181.25;;;24.47;57.38
52651;BME280;38537;47.226;39.702;2023-05-23T12:32:02;100217.97;;;24.70;55.82
52651;BME280;38537;47.226;39.702;2023-05-23T12:34:30;100190.66;;;24.51;55.82
52651;BME280;38537;47.226;39.702;2023-05-23T12:36:59;100185.75;;;24.55;55.99
52651;BME280;38537;47.226;39.702;2023-05-23T12:39:45;100202.06;;;24.73;55.70
52651;BME280;38537;47.226;39.702;2023-05-23T12:42:13;100213.91;;;24.68;55.88
52651;BME280;38537;47.226;39.702;2023-05-23T12:44:41;100197.19;;;24.55;55.76
52651;BME280;38537;47.226;39.702;2023-05-23T12:47:12;100190.25;;;24.56;55.59
52651;BME280;38537;47.226;39.702;2023-05-23T12:49:39;100205.34;;;24.75;56.08
52651;BME280;38537;47.226;39.702;2023-05-23T12:52:07;100201.28;;;24.65;55.83
52651;BME280;38537;47.226;39.702;2023-05-23T12:54:34;100176.38;;;24.73;56.22
52651;BME280;38537;47.226;39.702;2023-05-23T12:57:01;100180.84;;;24.70;54.81
52651;BME280;38537;47.226;39.702;2023-05-23T12:59:29;100195.56;;;24.86;55.41
52651;BME280;38537;47.226;39.702;2023-05-23T13:01:56;100183.72;;;24.77;54.83
52651;BME280;38537;47.226;39.702;2023-05-23T13:04:25;100175.56;;;24.65;55.22
52651;BME280;38537;47.226;39.702;2023-05-23T13:06:58;100168.63;;;24.52;54.98
52651;BME280;38537;47.226;39.702;2023-05-23T13:09:25;100172.31;;;24.42;55.14
52651;BME280;38537;47.226;39.702;2023-05-23T13:11:53;100187.38;;;24.53;55.55
52651;BME280;38537;47.226;39.702;2023-05-23T13:14:21;100158.00;;;24.31;55.14
52651;BME280;38537;47.226;39.702;2023-05-23T13:16:48;100175.16;;;24.38;55.70
52651;BME280;38537;47.226;39.702;2023-05-23T13:19:16;100187.41;;;24.46;56.01
52651;BME280;38537;47.226;39.702;2023-05-23T13:21:44;100159.66;;;24.32;55.93